Startpagina
METAR-TAF:

METAR-TAF

Vliegvelden :

Middleton Island, Alaska, Verenigde Staten

breedte: 59-26N, lengte: 146-18W, hoogte: 27 m

Actueel weer

Dit bericht is 52 minuten geleden gemaakt, om 09:51 UTC
Wind 6 kt uit het westnoordwesten
Temperatuur 12°C
Vochtigheid 94%
Druk 1022 hPa
Zicht: 16.1 km
Gebroken wolken op 1200 ft
Geheel bewolkt op 8000 ft

METAR: PAMD 190951Z AUTO 29006KT 10SM BKN012 OVC080 12/11 A3017 RMK AO2 SLP208 T01170106

Tijdstip: 02:43 (10:43 UTC)


TAF: ontbreekt

Waarnemingen en weersverwachtingen van meer dan 4000 vliegvelden (METAR en TAF).

De beschikbare stations zijn de gele en rode punten op de kaart.

Ga met uw muis naar het station om de naam te zien.

Klik dan om waarnemingen en weersverwachtingen te zien.

kaart wijzigen: klik op de groene knoppen met een zwart kruis om in te zoomen, op de groene knop met een streepje om uit te zoomen of op de groene pijlen voor aangrenzende kaarten.


METAR-TAF: